Time;durP1;ratioP1;P1;durP2;ratioP2;P2;SDS_P1;SDS_P2;PMS_P1;PMS_P2;Temp;Humidity;BMP_temperature;BMP_pressure;BME280_temperature;BME280_humidity;BME280_pressure;Samples;Min_cycle;Max_cycle;Signal;HPM_P1;HPM_P2
2023/02/14 00:02:05;;;;;;;57.40;32.33;;;5.50;99.90;;;;;;5044531;28;20112;-68
2023/02/14 00:04:31;;;;;;;64.10;32.42;;;5.50;99.90;;;;;;5042038;28;20021;-67
2023/02/14 00:06:56;;;;;;;50.30;29.73;;;5.50;99.90;;;;;;5040844;28;20044;-67
2023/02/14 00:09:22;;;;;;;51.33;31.52;;;5.50;99.90;;;;;;5041476;28;20091;-68
2023/02/14 00:11:48;;;;;;;42.05;26.80;;;5.50;99.90;;;;;;5038984;28;20470;-68
2023/02/14 00:16:59;;;;;;;46.10;27.30;;;5.30;99.90;;;;;;5044911;28;20048;-67
2023/02/14 00:19:25;;;;;;;39.30;23.00;;;5.30;99.90;;;;;;5052145;28;20018;-68
2023/02/14 00:21:51;;;;;;;39.28;24.20;;;5.30;99.90;;;;;;5035267;28;20103;-68
2023/02/14 00:24:24;;;;;;;47.83;26.70;;;5.30;99.90;;;;;;5045723;28;20036;-68
2023/02/14 00:26:51;;;;;;;57.75;29.95;;;5.30;99.90;;;;;;5038962;28;20034;-67
2023/02/14 00:29:25;;;;;;;43.60;25.98;;;5.20;99.90;;;;;;5046018;28;20037;-69
2023/02/14 00:31:52;;;;;;;48.20;27.35;;;5.20;99.90;;;;;;5042675;28;20378;-67
2023/02/14 00:34:18;;;;;;;44.45;28.70;;;5.20;99.90;;;;;;5046431;28;20026;-67
2023/02/14 00:36:44;;;;;;;49.47;28.60;;;5.20;99.90;;;;;;5041436;28;20133;-67
2023/02/14 00:39:13;;;;;;;48.17;29.88;;;5.10;99.90;;;;;;5043308;28;20026;-67
2023/02/14 00:41:40;;;;;;;52.35;31.17;;;5.20;99.90;;;;;;5040870;28;20139;-68
2023/02/14 00:44:06;;;;;;;55.03;30.73;;;5.20;99.90;;;;;;5043836;28;20038;-67
2023/02/14 00:46:33;;;;;;;53.38;30.08;;;5.20;99.90;;;;;;5038330;28;20028;-67
2023/02/14 00:48:58;;;;;;;52.50;31.88;;;5.20;99.90;;;;;;5046858;28;20381;-66
2023/02/14 00:51:24;;;;;;;48.70;28.38;;;5.20;99.90;;;;;;5041092;28;20020;-67
2023/02/14 00:53:50;;;;;;;57.38;31.83;;;5.10;99.90;;;;;;5044199;28;20033;-67
2023/02/14 00:56:17;;;;;;;53.28;29.40;;;5.10;99.90;;;;;;5046531;28;20029;-68
2023/02/14 00:58:43;;;;;;;52.08;29.10;;;5.10;99.90;;;;;;5043965;28;20025;-68
2023/02/14 01:01:09;;;;;;;49.30;30.27;;;5.10;99.90;;;;;;5043683;28;20033;-68
2023/02/14 01:03:35;;;;;;;61.30;33.33;;;5.00;99.90;;;;;;5049996;28;20037;-67
2023/02/14 01:06:01;;;;;;;61.88;32.20;;;4.90;99.90;;;;;;5041134;28;20029;-66
2023/02/14 01:08:27;;;;;;;62.88;33.67;;;4.90;99.90;;;;;;5045204;28;20017;-68
2023/02/14 01:10:52;;;;;;;61.72;32.55;;;4.90;99.90;;;;;;5046308;28;20070;-66
2023/02/14 01:13:19;;;;;;;61.47;31.63;;;4.90;99.90;;;;;;5049780;28;20414;-66
2023/02/14 01:15:47;;;;;;;59.88;31.20;;;4.80;99.90;;;;;;5041703;28;20075;-66
2023/02/14 01:18:18;;;;;;;55.92;30.50;;;4.80;99.90;;;;;;5035038;28;20030;-67
2023/02/14 01:20:44;;;;;;;58.00;28.98;;;4.80;99.90;;;;;;5049040;28;20025;-67
2023/02/14 01:23:10;;;;;;;52.97;28.58;;;4.80;99.90;;;;;;5039389;28;20605;-67
2023/02/14 01:25:36;;;;;;;52.45;27.80;;;4.80;99.90;;;;;;5036617;28;20036;-67
2023/02/14 01:28:03;;;;;;;50.15;27.30;;;4.70;99.90;;;;;;5044436;28;20024;-67
2023/02/14 01:30:29;;;;;;;46.50;27.08;;;4.70;99.90;;;;;;5040562;28;20504;-67
2023/02/14 01:32:54;;;;;;;49.60;26.20;;;4.70;99.90;;;;;;5041856;28;20052;-67
2023/02/14 01:35:20;;;;;;;49.92;27.65;;;4.70;99.90;;;;;;5041820;28;20510;-67
2023/02/14 01:37:45;;;;;;;45.75;25.15;;;4.70;99.90;;;;;;5038912;28;20032;-67
2023/02/14 01:40:12;;;;;;;47.67;26.75;;;4.70;99.90;;;;;;5044060;28;20025;-67
2023/02/14 01:42:37;;;;;;;49.70;26.08;;;4.60;99.90;;;;;;5040863;28;20037;-67
2023/02/14 01:45:08;;;;;;;49.40;26.80;;;4.50;99.90;;;;;;5045187;28;20028;-67
2023/02/14 01:47:38;;;;;;;49.55;27.40;;;4.60;99.90;;;;;;5037037;28;20029;-67
2023/02/14 01:50:26;;;;;;;46.60;25.52;;;4.60;99.90;;;;;;5040359;28;20016;-67
2023/02/14 01:52:56;;;;;;;45.33;25.90;;;4.60;99.90;;;;;;5044587;28;20027;-67
2023/02/14 01:55:27;;;;;;;48.92;27.08;;;4.60;99.90;;;;;;5043825;28;20021;-67
2023/02/14 01:58:00;;;;;;;43.17;24.02;;;4.70;99.90;;;;;;5038176;28;20515;-67
2023/02/14 02:03:11;;;;;;;42.03;23.48;;;4.60;99.90;;;;;;5049583;28;20044;-67
2023/02/14 02:05:41;;;;;;;45.03;23.05;;;4.60;99.90;;;;;;5045778;28;20401;-68
2023/02/14 02:08:06;;;;;;;40.72;22.50;;;4.60;99.90;;;;;;5043596;28;20032;-67
2023/02/14 02:10:32;;;;;;;36.72;20.50;;;4.60;99.90;;;;;;5046386;28;20026;-67
2023/02/14 02:13:04;;;;;;;41.60;21.42;;;4.60;99.90;;;;;;5051059;28;20032;-67
2023/02/14 02:15:40;;;;;;;43.03;23.25;;;4.60;99.90;;;;;;5047618;28;20121;-67
2023/02/14 02:18:33;;;;;;;41.92;23.33;;;4.60;99.90;;;;;;5047235;28;20029;-67
2023/02/14 02:21:16;;;;;;;43.83;22.55;;;4.60;99.90;;;;;;5040908;28;20469;-67
2023/02/14 02:23:56;;;;;;;45.78;24.35;;;4.50;99.90;;;;;;5043103;28;20478;-67
2023/02/14 02:26:40;;;;;;;45.13;23.63;;;4.50;99.90;;;;;;5045708;28;20025;-67
2023/02/14 02:29:30;;;;;;;45.28;23.17;;;4.50;99.90;;;;;;5044247;28;22252;-67
2023/02/14 02:32:51;;;;;;;48.22;24.63;;;4.50;99.90;;;;;;5052656;28;20027;-67
2023/02/14 02:35:32;;;;;;;49.15;23.95;;;4.50;99.90;;;;;;5044772;28;20038;-67
2023/02/14 02:38:13;;;;;;;47.50;24.42;;;4.50;99.90;;;;;;5048637;28;20028;-67
2023/02/14 02:40:57;;;;;;;54.58;27.23;;;4.40;99.90;;;;;;5045023;28;20532;-67
2023/02/14 02:43:56;;;;;;;49.78;25.65;;;4.40;99.90;;;;;;5039786;28;20060;-67
2023/02/14 02:46:47;;;;;;;49.17;24.63;;;4.40;99.90;;;;;;5046740;28;20082;-67
2023/02/14 02:55:21;;;;;;;43.38;22.95;;;4.30;99.90;;;;;;5046828;28;20539;-67
2023/02/14 02:57:48;;;;;;;49.70;25.13;;;4.30;99.90;;;;;;5037937;28;20074;-67
2023/02/14 03:00:16;;;;;;;50.75;25.10;;;4.30;99.90;;;;;;5043169;28;20037;-67
2023/02/14 03:05:34;;;;;;;53.47;27.27;;;4.20;99.90;;;;;;5047806;28;20047;-67
2023/02/14 03:07:59;;;;;;;48.65;25.92;;;4.10;99.90;;;;;;5051811;28;20016;-67
2023/02/14 03:10:30;;;;;;;52.67;27.05;;;4.10;99.90;;;;;;5040727;28;20025;-68
2023/02/14 03:12:59;;;;;;;55.00;26.95;;;4.20;99.90;;;;;;5046522;28;20030;-66
2023/02/14 03:16:01;;;;;;;56.15;26.45;;;4.20;99.90;;;;;;5043531;28;20128;-67
2023/02/14 03:22:03;;;;;;;52.47;26.88;;;4.20;99.90;;;;;;5044475;28;20115;-67
2023/02/14 03:24:38;;;;;;;54.10;27.95;;;4.20;99.90;;;;;;5042037;28;20029;-67
2023/02/14 03:27:27;;;;;;;47.65;25.23;;;4.20;99.90;;;;;;5046010;28;20041;-69
2023/02/14 03:29:52;;;;;;;54.13;27.55;;;4.20;99.90;;;;;;5045412;28;20520;-67
2023/02/14 03:32:42;;;;;;;56.78;28.10;;;4.20;99.90;;;;;;5046379;28;20028;-67
2023/02/14 03:35:24;;;;;;;48.85;25.95;;;4.20;99.90;;;;;;5038781;28;20565;-66
2023/02/14 03:38:15;;;;;;;48.85;25.27;;;4.20;99.90;;;;;;5038257;28;20033;-67
2023/02/14 03:40:56;;;;;;;53.45;27.98;;;4.20;99.90;;;;;;5042814;28;20083;-67
2023/02/14 03:43:46;;;;;;;54.53;28.70;;;4.20;99.90;;;;;;5037034;28;20852;-67
2023/02/14 03:46:33;;;;;;;59.08;28.52;;;4.20;99.90;;;;;;5043034;28;20017;-67
2023/02/14 03:49:04;;;;;;;62.17;28.20;;;4.20;99.90;;;;;;5039836;28;20029;-67
2023/02/14 03:51:33;;;;;;;51.80;26.85;;;4.10;99.90;;;;;;5046320;28;20025;-67
2023/02/14 03:54:01;;;;;;;54.33;28.45;;;4.10;99.90;;;;;;5048256;28;20021;-67
2023/02/14 03:56:40;;;;;;;54.90;29.08;;;4.10;99.90;;;;;;5051706;28;20031;-67
2023/02/14 03:59:19;;;;;;;58.88;29.10;;;4.10;99.90;;;;;;5038543;28;20067;-68
2023/02/14 04:01:44;;;;;;;58.00;28.40;;;4.10;99.90;;;;;;5039227;28;20163;-68
2023/02/14 04:04:13;;;;;;;55.47;28.17;;;4.10;99.90;;;;;;5040017;28;20100;-67
2023/02/14 04:06:39;;;;;;;53.47;27.65;;;4.10;99.90;;;;;;5043940;28;20029;-67
2023/02/14 04:09:05;;;;;;;54.20;28.73;;;4.10;99.90;;;;;;5036842;28;20481;-67
2023/02/14 04:11:33;;;;;;;53.45;28.80;;;4.00;99.90;;;;;;5044808;28;20531;-67
2023/02/14 04:14:00;;;;;;;60.58;28.50;;;4.00;99.90;;;;;;5040873;28;20108;-67
2023/02/14 04:16:26;;;;;;;54.58;28.75;;;3.90;99.90;;;;;;5041905;28;20673;-67
2023/02/14 04:21:36;;;;;;;65.47;30.67;;;3.90;99.90;;;;;;5043465;28;21000;-67
2023/02/14 04:24:01;;;;;;;59.78;30.20;;;3.90;99.90;;;;;;5034329;28;20025;-67
2023/02/14 04:26:27;;;;;;;53.05;27.52;;;3.90;99.90;;;;;;5039848;28;20104;-67
2023/02/14 04:28:52;;;;;;;55.20;30.17;;;4.00;99.90;;;;;;5039834;28;20029;-67
2023/02/14 04:31:18;;;;;;;56.00;28.48;;;4.00;99.90;;;;;;5045329;28;20029;-66
2023/02/14 04:33:44;;;;;;;55.00;28.75;;;3.90;99.90;;;;;;5042466;28;20469;-67
2023/02/14 04:36:10;;;;;;;62.10;27.98;;;4.00;99.90;;;;;;5047734;28;20045;-67
2023/02/14 04:38:36;;;;;;;52.30;26.52;;;3.90;99.90;;;;;;5040943;28;20395;-67
2023/02/14 04:41:02;;;;;;;52.13;26.08;;;3.90;99.90;;;;;;5041857;28;20516;-68
2023/02/14 04:43:27;;;;;;;53.42;26.48;;;4.00;99.90;;;;;;5046702;28;20029;-67
2023/02/14 04:45:53;;;;;;;52.55;23.10;;;4.00;99.90;;;;;;5041964;28;20034;-66
2023/02/14 04:48:19;;;;;;;48.72;24.27;;;4.00;99.90;;;;;;5038154;28;20056;-67
2023/02/14 04:50:49;;;;;;;52.97;26.40;;;3.90;99.90;;;;;;5043734;28;20113;-67
2023/02/14 04:53:18;;;;;;;57.45;28.90;;;3.90;99.90;;;;;;5043939;28;20036;-66
2023/02/14 04:55:44;;;;;;;55.95;27.90;;;3.90;99.90;;;;;;5043835;28;20392;-67
2023/02/14 04:58:09;;;;;;;57.75;29.13;;;3.90;99.90;;;;;;5045133;28;20521;-66
2023/02/14 05:00:35;;;;;;;52.28;26.08;;;3.90;99.90;;;;;;5040721;28;20113;-67
2023/02/14 05:03:01;;;;;;;49.33;27.55;;;3.80;99.90;;;;;;5040673;28;20416;-67
2023/02/14 05:05:26;;;;;;;50.50;27.45;;;3.90;99.90;;;;;;5039597;28;20041;-67
2023/02/14 05:07:52;;;;;;;50.85;27.70;;;3.90;99.90;;;;;;5047180;28;20112;-67
2023/02/14 05:10:18;;;;;;;48.42;26.67;;;3.90;99.90;;;;;;5043300;28;20017;-67
2023/02/14 05:12:43;;;;;;;50.83;25.92;;;3.90;99.90;;;;;;5043063;28;20389;-67
2023/02/14 05:15:09;;;;;;;56.35;27.85;;;3.90;99.90;;;;;;5039715;28;20079;-67
2023/02/14 05:17:36;;;;;;;48.42;24.23;;;3.80;99.90;;;;;;5043217;28;20035;-67
2023/02/14 05:20:02;;;;;;;51.22;26.17;;;3.80;99.90;;;;;;5047709;28;20021;-66
2023/02/14 05:22:28;;;;;;;49.05;27.77;;;3.80;99.90;;;;;;5038770;28;20048;-67
2023/02/14 05:24:53;;;;;;;47.63;26.73;;;3.70;99.90;;;;;;5041272;28;20017;-67
2023/02/14 05:27:19;;;;;;;51.08;26.63;;;3.80;99.90;;;;;;5036607;28;20043;-67
2023/02/14 05:29:44;;;;;;;41.83;24.90;;;3.70;99.90;;;;;;5040927;28;20026;-67
2023/02/14 05:32:10;;;;;;;45.25;24.02;;;3.70;99.90;;;;;;5046710;28;20033;-67
2023/02/14 05:34:36;;;;;;;43.65;24.40;;;3.70;99.90;;;;;;5046200;28;20025;-67
2023/02/14 05:37:02;;;;;;;44.00;23.20;;;3.70;99.90;;;;;;5046884;28;20139;-67
2023/02/14 05:39:28;;;;;;;45.28;25.25;;;3.70;99.90;;;;;;5045502;28;20495;-67
2023/02/14 05:41:55;;;;;;;42.85;23.33;;;3.70;99.90;;;;;;5044499;28;20034;-67
2023/02/14 05:44:21;;;;;;;45.40;23.42;;;3.70;99.90;;;;;;5049284;28;20106;-67
2023/02/14 05:46:46;;;;;;;47.83;24.20;;;3.70;99.90;;;;;;5043196;28;20029;-66
2023/02/14 05:49:12;;;;;;;45.42;24.48;;;3.70;99.90;;;;;;5051112;28;20025;-67
2023/02/14 05:51:38;;;;;;;47.03;23.70;;;3.70;99.90;;;;;;5046735;28;20036;-67
2023/02/14 05:54:03;;;;;;;45.17;22.85;;;3.60;99.90;;;;;;5046142;28;20426;-67
2023/02/14 05:56:29;;;;;;;47.03;24.17;;;3.60;99.90;;;;;;5040758;28;20025;-67
2023/02/14 05:58:55;;;;;;;40.95;23.35;;;3.60;99.90;;;;;;5045403;28;20025;-66
2023/02/14 06:01:20;;;;;;;39.92;22.33;;;3.70;99.90;;;;;;5038037;28;20611;-66
2023/02/14 06:03:46;;;;;;;43.17;22.58;;;3.60;99.90;;;;;;5044198;28;20053;-66
2023/02/14 06:06:12;;;;;;;45.28;25.75;;;3.50;99.90;;;;;;5044229;28;20075;-67
2023/02/14 06:08:37;;;;;;;41.75;23.88;;;3.40;99.90;;;;;;5055830;28;20390;-67
2023/02/14 06:11:03;;;;;;;38.53;22.50;;;3.30;99.90;;;;;;5046828;28;20078;-67
2023/02/14 06:13:29;;;;;;;39.00;20.67;;;3.30;99.90;;;;;;5047082;28;20033;-67
2023/02/14 06:15:55;;;;;;;41.10;22.48;;;3.40;99.90;;;;;;5047294;28;20452;-67
2023/02/14 06:18:20;;;;;;;36.45;22.10;;;3.40;99.90;;;;;;5052116;28;20021;-67
2023/02/14 06:20:46;;;;;;;39.70;22.23;;;3.40;99.90;;;;;;5044495;28;20095;-67
2023/02/14 06:23:12;;;;;;;42.40;24.10;;;3.40;99.90;;;;;;5044926;28;20033;-66
2023/02/14 06:25:37;;;;;;;39.63;20.83;;;3.40;99.90;;;;;;5043146;28;20052;-66
2023/02/14 06:28:03;;;;;;;37.53;19.63;;;3.40;99.90;;;;;;5044540;28;20032;-66
2023/02/14 06:30:29;;;;;;;37.45;21.08;;;3.30;99.90;;;;;;5038606;28;20071;-67
2023/02/14 06:32:54;;;;;;;42.97;20.85;;;3.20;99.90;;;;;;5042678;28;20484;-66
2023/02/14 06:35:20;;;;;;;51.35;21.25;;;3.30;99.90;;;;;;5045102;28;20038;-67
2023/02/14 06:37:46;;;;;;;45.85;19.75;;;3.20;99.90;;;;;;5042138;28;20021;-67
2023/02/14 06:40:12;;;;;;;39.67;20.45;;;3.30;99.90;;;;;;5046191;28;20065;-67
2023/02/14 06:42:38;;;;;;;39.40;20.83;;;3.30;99.90;;;;;;5048188;28;20159;-67
2023/02/14 06:45:05;;;;;;;41.65;22.45;;;3.30;99.90;;;;;;5045393;28;20458;-67
2023/02/14 06:47:31;;;;;;;38.55;20.50;;;3.30;99.90;;;;;;5043577;28;20029;-67
2023/02/14 06:49:58;;;;;;;40.83;20.58;;;3.30;99.90;;;;;;5045967;28;20028;-66
2023/02/14 06:52:25;;;;;;;36.50;20.15;;;3.30;99.90;;;;;;5045065;28;20449;-66
2023/02/14 06:54:50;;;;;;;40.58;22.27;;;3.30;99.90;;;;;;5043408;28;20037;-66
2023/02/14 06:57:16;;;;;;;37.90;20.70;;;3.30;99.90;;;;;;5041900;28;20377;-66
2023/02/14 06:59:41;;;;;;;36.83;20.50;;;3.30;99.90;;;;;;5039267;28;20377;-66
2023/02/14 07:02:10;;;;;;;37.97;20.67;;;3.30;99.90;;;;;;5040175;28;20038;-67
2023/02/14 07:04:35;;;;;;;39.67;21.27;;;3.30;99.90;;;;;;5047617;28;20032;-66
2023/02/14 07:07:01;;;;;;;39.92;23.38;;;3.30;99.90;;;;;;5041729;28;20024;-66
2023/02/14 07:09:27;;;;;;;38.35;22.17;;;3.30;99.90;;;;;;5047465;28;20381;-67
2023/02/14 07:11:52;;;;;;;48.40;23.98;;;3.30;99.90;;;;;;5045219;28;20024;-66
2023/02/14 07:14:18;;;;;;;47.63;24.77;;;3.20;99.90;;;;;;5047584;28;20025;-66
2023/02/14 07:16:44;;;;;;;54.95;26.50;;;3.20;99.90;;;;;;5050223;28;20082;-66
2023/02/14 07:19:09;;;;;;;49.58;26.58;;;3.20;99.90;;;;;;5040426;28;20035;-66
2023/02/14 07:21:35;;;;;;;46.22;23.75;;;3.30;99.90;;;;;;5047709;28;20037;-66
2023/02/14 07:24:00;;;;;;;50.92;22.42;;;3.30;99.90;;;;;;5040132;28;20024;-66
2023/02/14 07:26:26;;;;;;;44.83;20.33;;;3.30;99.90;;;;;;5042450;28;20021;-66
2023/02/14 07:28:52;;;;;;;44.38;22.83;;;3.30;99.90;;;;;;5043537;28;20481;-67
2023/02/14 07:31:22;;;;;;;42.80;21.48;;;3.30;99.90;;;;;;5041251;28;20071;-67
2023/02/14 07:33:49;;;;;;;46.28;21.33;;;3.20;99.90;;;;;;5040523;28;20029;-69
2023/02/14 07:36:14;;;;;;;44.50;22.02;;;3.30;99.90;;;;;;5040910;28;20069;-68
2023/02/14 07:38:40;;;;;;;43.20;21.80;;;3.30;99.90;;;;;;5039791;28;20065;-69
2023/02/14 07:41:05;;;;;;;43.03;21.58;;;3.30;99.90;;;;;;5051505;28;20155;-69
2023/02/14 07:43:33;;;;;;;36.85;21.42;;;3.30;99.90;;;;;;5037392;28;20075;-68
2023/02/14 07:46:00;;;;;;;37.47;21.58;;;3.20;99.90;;;;;;5042183;28;20029;-69
2023/02/14 07:48:26;;;;;;;46.22;20.67;;;3.30;99.90;;;;;;5046147;28;20330;-69
2023/02/14 07:50:55;;;;;;;35.92;19.83;;;3.30;99.90;;;;;;5050131;28;20466;-69
2023/02/14 07:53:21;;;;;;;39.05;21.00;;;3.30;99.90;;;;;;5042391;28;20115;-69
2023/02/14 07:55:53;;;;;;;41.67;20.17;;;3.40;99.90;;;;;;5040982;28;20317;-69
2023/02/14 07:58:18;;;;;;;37.03;19.75;;;3.40;99.90;;;;;;5048426;28;20018;-69
2023/02/14 08:00:45;;;;;;;41.45;21.02;;;3.40;99.90;;;;;;5039738;28;20051;-67
2023/02/14 08:03:11;;;;;;;48.55;24.60;;;3.40;99.90;;;;;;5046243;28;20037;-67
2023/02/14 08:05:38;;;;;;;37.47;22.20;;;3.40;99.90;;;;;;5042491;28;20033;-69
2023/02/14 08:08:04;;;;;;;40.55;24.85;;;3.40;99.90;;;;;;5041157;28;20485;-69
2023/02/14 08:10:30;;;;;;;57.88;25.60;;;3.40;99.90;;;;;;5035590;28;20031;-69
2023/02/14 08:12:58;;;;;;;43.38;24.55;;;3.40;99.90;;;;;;5042351;28;20109;-70
2023/02/14 08:18:18;;;;;;;49.90;25.73;;;3.50;99.90;;;;;;5045606;28;20060;-70
2023/02/14 08:20:45;;;;;;;50.53;27.08;;;3.50;99.90;;;;;;5039774;28;20037;-70
2023/02/14 08:23:11;;;;;;;45.05;23.48;;;3.50;99.90;;;;;;5040892;28;20021;-69
2023/02/14 08:25:37;;;;;;;45.47;23.48;;;3.70;99.90;;;;;;5042523;28;20091;-68
2023/02/14 08:28:04;;;;;;;45.80;23.25;;;3.80;99.90;;;;;;5037551;28;20032;-68
2023/02/14 08:30:30;;;;;;;48.10;23.70;;;4.00;99.90;;;;;;5042999;28;20024;-68
2023/02/14 08:32:56;;;;;;;45.47;25.20;;;4.00;99.90;;;;;;5040142;28;20082;-68
2023/02/14 08:35:22;;;;;;;41.92;22.85;;;4.20;99.90;;;;;;5041869;28;20033;-68
2023/02/14 08:37:47;;;;;;;47.90;24.98;;;4.30;99.90;;;;;;5047571;28;20371;-68
2023/02/14 08:40:13;;;;;;;41.47;22.85;;;4.50;99.90;;;;;;5043432;28;20030;-68
2023/02/14 08:42:38;;;;;;;50.50;25.30;;;4.50;99.90;;;;;;5037257;28;20036;-68
2023/02/14 08:45:04;;;;;;;43.08;24.17;;;4.60;99.90;;;;;;5046111;28;20030;-68
2023/02/14 08:47:37;;;;;;;49.17;23.83;;;4.70;99.90;;;;;;5036950;28;20100;-68
2023/02/14 08:50:04;;;;;;;41.67;24.80;;;4.90;99.90;;;;;;5043731;28;20021;-68
2023/02/14 08:52:30;;;;;;;51.22;27.80;;;5.00;99.90;;;;;;5039150;28;20402;-68
2023/02/14 08:54:56;;;;;;;46.45;24.02;;;5.10;99.90;;;;;;5041888;28;22747;-68
2023/02/14 08:57:22;;;;;;;48.38;27.63;;;5.20;99.90;;;;;;5040740;28;20184;-68
2023/02/14 08:59:47;;;;;;;51.45;28.65;;;5.20;99.90;;;;;;5042771;28;20087;-69
2023/02/14 09:02:15;;;;;;;39.72;25.50;;;5.30;99.90;;;;;;5039844;28;20039;-69
2023/02/14 09:04:41;;;;;;;39.22;23.90;;;5.50;99.90;;;;;;5042642;28;20033;-69
2023/02/14 09:07:06;;;;;;;43.33;25.40;;;5.60;99.90;;;;;;5043298;28;20548;-69
2023/02/14 09:09:32;;;;;;;37.17;23.02;;;5.70;99.90;;;;;;5036724;28;20096;-69
2023/02/14 09:12:02;;;;;;;41.47;23.98;;;5.90;99.90;;;;;;5045515;28;20031;-69
2023/02/14 09:14:27;;;;;;;44.95;25.60;;;6.00;99.90;;;;;;5043457;28;20028;-69
2023/02/14 09:16:53;;;;;;;41.55;25.00;;;6.10;99.90;;;;;;5050114;28;20033;-69
2023/02/14 09:19:18;;;;;;;50.90;28.13;;;6.20;99.90;;;;;;5047466;28;20087;-69
2023/02/14 09:21:44;;;;;;;51.42;28.60;;;6.30;99.90;;;;;;5044122;28;20041;-69
2023/02/14 09:24:09;;;;;;;50.97;31.52;;;6.50;99.90;;;;;;5044571;28;20564;-69
2023/02/14 09:26:39;;;;;;;45.25;28.27;;;6.60;99.90;;;;;;5046084;28;20029;-69
2023/02/14 09:29:05;;;;;;;47.30;29.00;;;6.70;99.90;;;;;;5045375;28;20100;-69
2023/02/14 09:31:30;;;;;;;51.60;31.33;;;6.80;99.90;;;;;;5047543;28;20152;-68
2023/02/14 09:33:56;;;;;;;52.75;31.55;;;6.90;99.90;;;;;;5041886;28;20025;-69
2023/02/14 09:39:06;;;;;;;52.75;30.48;;;7.20;99.90;;;;;;5046296;28;20078;-69
2023/02/14 09:41:59;;;;;;;49.47;30.88;;;7.30;99.90;;;;;;5031932;28;20263;-69
2023/02/14 09:44:55;;;;;;;53.38;31.10;;;7.50;99.90;;;;;;5028766;28;20155;-69
2023/02/14 09:47:41;;;;;;;52.28;28.60;;;7.80;99.90;;;;;;5033317;28;20025;-69
2023/02/14 09:50:17;;;;;;;47.03;28.98;;;8.00;99.90;;;;;;5032308;28;20041;-68
2023/02/14 09:52:43;;;;;;;51.75;28.63;;;8.10;99.90;;;;;;5038965;28;20099;-70
2023/02/14 09:55:14;;;;;;;51.30;29.50;;;8.30;99.90;;;;;;5035734;28;20379;-69
2023/02/14 09:58:11;;;;;;;47.70;28.77;;;8.40;99.90;;;;;;5033059;28;20593;-69
2023/02/14 10:00:45;;;;;;;51.55;28.98;;;8.60;99.90;;;;;;5032010;28;20026;-69
2023/02/14 10:03:30;;;;;;;46.92;26.48;;;8.70;99.90;;;;;;5033259;28;20032;-68
2023/02/14 10:06:21;;;;;;;43.72;25.75;;;8.90;99.90;;;;;;5033838;28;20049;-69
2023/02/14 10:08:52;;;;;;;50.15;26.67;;;9.10;99.90;;;;;;5033384;28;20029;-69
2023/02/14 10:11:21;;;;;;;54.45;29.25;;;9.20;99.90;;;;;;5032555;28;20033;-69
2023/02/14 10:14:07;;;;;;;47.70;28.05;;;9.30;99.90;;;;;;5035750;28;20077;-69
2023/02/14 10:16:58;;;;;;;41.10;25.20;;;9.40;99.90;;;;;;5033457;28;20038;-68
2023/02/14 10:19:47;;;;;;;42.15;26.52;;;9.50;99.90;;;;;;5032217;28;20056;-69
2023/02/14 10:22:18;;;;;;;44.58;25.63;;;9.70;99.90;;;;;;5033722;28;20513;-69
2023/02/14 10:24:48;;;;;;;42.08;25.63;;;9.90;99.90;;;;;;5031402;28;20109;-69
2023/02/14 10:27:32;;;;;;;40.55;24.17;;;10.00;99.90;;;;;;5033438;28;20037;-69
2023/02/14 10:29:58;;;;;;;44.75;24.70;;;10.10;99.90;;;;;;5033408;28;20163;-69
2023/02/14 10:32:42;;;;;;;39.38;24.20;;;10.20;99.90;;;;;;5037983;28;20118;-69
2023/02/14 10:35:33;;;;;;;40.03;23.52;;;10.20;99.90;;;;;;5033540;28;20333;-69
2023/02/14 10:38:16;;;;;;;36.33;23.40;;;10.30;99.90;;;;;;5033240;28;20041;-69
2023/02/14 10:40:56;;;;;;;41.15;25.42;;;10.30;99.90;;;;;;5033300;28;20111;-69
2023/02/14 10:43:55;;;;;;;41.05;22.63;;;10.20;99.90;;;;;;5030615;28;20487;-69
2023/02/14 10:46:27;;;;;;;42.08;25.40;;;10.20;99.90;;;;;;5034667;28;20048;-69
2023/02/14 10:49:10;;;;;;;34.92;22.92;;;10.30;99.90;;;;;;5035402;28;20107;-69
2023/02/14 10:51:47;;;;;;;42.00;23.58;;;10.40;99.90;;;;;;5034453;28;20020;-69
2023/02/14 10:54:20;;;;;;;45.22;25.42;;;10.60;99.90;;;;;;5032350;28;20037;-69
2023/02/14 10:57:01;;;;;;;34.83;21.20;;;10.60;99.90;;;;;;5031062;28;20028;-69
2023/02/14 10:59:34;;;;;;;44.17;22.80;;;10.70;99.90;;;;;;5029441;28;20057;-69
2023/02/14 11:02:00;;;;;;;39.97;23.08;;;10.80;99.90;;;;;;5032559;28;20033;-70
2023/02/14 11:04:28;;;;;;;38.80;23.92;;;10.80;99.90;;;;;;5030426;28;20359;-70
2023/02/14 11:06:54;;;;;;;40.05;24.38;;;10.90;99.90;;;;;;5030757;28;20013;-69
2023/02/14 11:09:20;;;;;;;35.58;20.90;;;10.90;99.90;;;;;;5032578;28;20033;-69
2023/02/14 11:11:58;;;;;;;40.67;23.35;;;11.10;99.90;;;;;;5030999;28;20026;-70
2023/02/14 11:14:34;;;;;;;37.83;23.13;;;11.20;99.90;;;;;;5030252;28;20408;-69
2023/02/14 11:17:27;;;;;;;42.50;23.02;;;11.30;99.90;;;;;;5031121;28;20017;-70
2023/02/14 11:20:05;;;;;;;43.33;24.02;;;11.40;99.90;;;;;;5030546;28;20021;-70
2023/02/14 11:22:33;;;;;;;39.70;22.10;;;11.40;99.90;;;;;;5032973;28;20667;-70
2023/02/14 11:25:16;;;;;;;37.70;21.17;;;11.50;99.90;;;;;;5031320;28;20317;-70
2023/02/14 11:27:48;;;;;;;38.40;21.83;;;11.50;99.90;;;;;;5030681;28;20037;-70
2023/02/14 11:30:28;;;;;;;42.08;22.25;;;11.70;99.90;;;;;;5033120;28;20539;-69
2023/02/14 11:32:55;;;;;;;39.33;22.75;;;11.60;99.90;;;;;;5026386;28;20538;-70
2023/02/14 11:35:25;;;;;;;37.78;21.45;;;11.70;99.90;;;;;;5029815;28;20029;-69
2023/02/14 11:37:54;;;;;;;38.00;22.70;;;11.80;99.90;;;;;;5029338;28;20021;-70
2023/02/14 11:40:39;;;;;;;36.97;21.77;;;11.80;99.90;;;;;;5031787;28;20394;-70
2023/02/14 11:43:14;;;;;;;34.90;20.45;;;11.90;99.90;;;;;;5034315;28;20398;-70
2023/02/14 11:45:42;;;;;;;39.38;21.98;;;12.00;99.90;;;;;;5032385;28;20029;-70
2023/02/14 11:48:20;;;;;;;36.28;21.38;;;12.10;99.90;;;;;;5031528;28;20017;-70
2023/02/14 11:51:08;;;;;;;40.22;22.17;;;12.10;99.90;;;;;;5029754;28;20036;-70
2023/02/14 11:53:45;;;;;;;36.95;22.90;;;12.20;99.90;;;;;;5032165;28;20064;-70
2023/02/14 11:56:12;;;;;;;41.38;20.92;;;12.20;99.90;;;;;;5031148;28;20108;-70
2023/02/14 11:58:49;;;;;;;37.33;21.48;;;12.20;99.90;;;;;;5030478;28;20026;-70
2023/02/14 12:01:26;;;;;;;39.35;21.88;;;12.30;99.90;;;;;;5029793;28;20033;-69
2023/02/14 12:03:54;;;;;;;34.35;20.80;;;12.30;99.90;;;;;;5031024;28;20028;-70
2023/02/14 12:06:25;;;;;;;37.70;22.70;;;12.40;99.90;;;;;;5031640;28;20047;-70
2023/02/14 12:08:50;;;;;;;39.60;20.67;;;12.40;99.90;;;;;;5028347;28;20476;-70
2023/02/14 12:11:21;;;;;;;39.78;21.25;;;12.40;99.90;;;;;;5031998;28;20025;-70
2023/02/14 12:13:56;;;;;;;37.60;20.70;;;12.40;99.90;;;;;;5030768;28;20084;-69
2023/02/14 12:16:28;;;;;;;40.53;21.90;;;12.40;99.90;;;;;;5029437;28;20035;-69
2023/02/14 12:18:54;;;;;;;37.20;20.33;;;12.50;99.90;;;;;;5036289;28;20577;-69
2023/02/14 12:21:35;;;;;;;36.67;20.50;;;12.40;99.90;;;;;;5032173;28;20045;-70
2023/02/14 12:24:28;;;;;;;35.50;18.85;;;12.40;99.90;;;;;;5033665;28;20370;-69
2023/02/14 12:26:54;;;;;;;38.28;21.05;;;12.50;99.90;;;;;;5033222;28;20021;-70
2023/02/14 12:29:29;;;;;;;37.22;20.85;;;12.60;99.90;;;;;;5027718;28;20354;-70
2023/02/14 12:32:00;;;;;;;37.13;19.33;;;12.70;99.90;;;;;;5030624;28;20029;-70
2023/02/14 12:34:26;;;;;;;39.47;21.00;;;12.70;99.90;;;;;;5031079;28;20386;-70
2023/02/14 12:37:12;;;;;;;37.25;20.73;;;12.70;99.90;;;;;;5030026;28;20479;-69
2023/02/14 12:40:01;;;;;;;35.30;20.05;;;12.70;99.90;;;;;;5030119;28;20065;-67
2023/02/14 12:42:41;;;;;;;39.65;21.05;;;12.70;99.90;;;;;;5033460;28;20041;-67
2023/02/14 12:45:33;;;;;;;42.17;22.48;;;12.70;99.90;;;;;;5031531;28;20072;-67
2023/02/14 12:48:42;;;;;;;41.63;20.52;;;12.70;99.90;;;;;;5030611;28;20064;-69
2023/02/14 12:51:11;;;;;;;41.63;22.17;;;12.70;99.90;;;;;;5032465;28;20037;-67
2023/02/14 12:54:01;;;;;;;40.25;21.63;;;12.70;99.90;;;;;;5032868;28;20038;-67
2023/02/14 12:56:45;;;;;;;39.97;21.23;;;12.70;99.90;;;;;;5030137;28;20556;-66
2023/02/14 12:59:19;;;;;;;35.70;20.80;;;12.70;99.90;;;;;;5035479;28;20065;-68
2023/02/14 13:02:09;;;;;;;36.47;20.58;;;12.60;99.90;;;;;;5034411;28;20060;-67
2023/02/14 13:04:46;;;;;;;41.88;23.02;;;12.70;99.90;;;;;;5037243;28;20030;-68
2023/02/14 13:07:36;;;;;;;41.25;22.30;;;12.70;99.90;;;;;;5034024;28;20120;-67
2023/02/14 13:10:11;;;;;;;41.53;23.08;;;12.60;99.90;;;;;;5038084;28;20059;-70
2023/02/14 13:12:50;;;;;;;41.85;23.90;;;12.60;99.90;;;;;;5039206;28;20025;-68
2023/02/14 13:16:01;;;;;;;43.72;24.13;;;12.50;99.90;;;;;;5038883;28;20109;-68
2023/02/14 13:18:26;;;;;;;48.75;26.85;;;12.60;99.90;;;;;;5019470;28;20498;-69
2023/02/14 13:20:57;;;;;;;46.13;24.13;;;12.50;99.90;;;;;;5037560;28;20073;-70
2023/02/14 13:23:41;;;;;;;44.20;24.95;;;12.70;99.90;;;;;;5050100;28;20048;-70